Flugplatz Fassberg Airport

Bericht für ETHS

vom 12.12. um 22:20 UTC

Wind 5 kt aus 100°

Sichtweite 10 km oder mehr

gering bewölkt in 700 ft

aufgebrochene Bewölkung in 1700 ft

Temperatur 2.0°C

Taupunkt 1.0°C

Luftfeuchtigkeit 93%

Luftdruck 1026 hPa

ETHS 122220Z 10005KT 9999 FEW007 BKN017 02/01 Q1026 WHT

Prognose für ETHS

vom 12.12. um 15:31 UTC

Am 12.12. zwischen 15:00 UTC und 00:00 UTC zeitweise

Wind 10 kt aus 360°

Sichtweite 4000 m

Regenschauer

Schneeschauer

aufgelockert bewölkt in 800 ft

aufgebrochene Bewölkung in 1200 ft


Am 12.12. zwischen 15:00 UTC und 00:00 UTC

Wind 5 kt aus 20°

Sichtweite 9000 m

keine signifikanten Wettererscheinungen

aufgelockert bewölkt in 1500 ft

aufgebrochene Bewölkung in 3000 ft

TAF AMD ETHS 121531Z 1215/1224 02005KT 9000 NSW SCT015 BKN030 TEMPO 1215/1224 36010KT 4000 SHRASN SCT008 BKN012TCU CANCEL 1600
Impressum